Time;durP1;ratioP1;P1;durP2;ratioP2;P2;SDS_P1;SDS_P2;PMS_P1;PMS_P2;Temp;Humidity;BMP_temperature;BMP_pressure;BME280_temperature;BME280_humidity;BME280_pressure;Samples;Min_cycle;Max_cycle;Signal;HPM_P1;HPM_P2
2022/07/05 00:00:56;;;;;;;9.98;7.25;;;10.70;1.00;;;;;;5073836;28;20430;-26
2022/07/05 00:03:22;;;;;;;11.10;7.20;;;10.70;1.00;;;;;;5073209;28;20127;-26
2022/07/05 00:05:48;;;;;;;9.13;7.47;;;10.70;1.00;;;;;;5073679;28;20052;-26
2022/07/05 00:08:14;;;;;;;9.40;6.15;;;10.70;1.00;;;;;;5072015;28;20040;-26
2022/07/05 00:10:39;;;;;;;11.35;7.60;;;10.70;1.00;;;;;;5073184;28;20057;-26
2022/07/05 00:13:06;;;;;;;7.93;6.50;;;10.80;1.00;;;;;;5073102;28;20196;-26
2022/07/05 00:15:31;;;;;;;10.77;6.63;;;10.80;1.00;;;;;;5072192;28;20056;-26
2022/07/05 00:17:57;;;;;;;9.77;6.50;;;10.70;1.00;;;;;;5073295;28;20520;-26
2022/07/05 00:20:23;;;;;;;9.57;6.70;;;10.70;1.00;;;;;;5072386;28;20486;-26
2022/07/05 00:22:49;;;;;;;9.02;6.28;;;10.70;1.00;;;;;;5077131;28;20060;-26
2022/07/05 00:25:14;;;;;;;9.55;6.07;;;10.70;1.00;;;;;;5075624;28;20045;-26
2022/07/05 00:27:41;;;;;;;8.55;5.78;;;10.60;1.00;;;;;;5077210;28;20036;-26
2022/07/05 00:30:07;;;;;;;8.13;6.25;;;10.60;1.00;;;;;;5076493;28;20067;-26
2022/07/05 00:32:33;;;;;;;11.20;6.80;;;10.60;1.00;;;;;;5076575;28;20055;-26
2022/07/05 00:34:59;;;;;;;9.10;6.70;;;10.60;1.00;;;;;;5075387;28;20040;-26
2022/07/05 00:37:25;;;;;;;9.38;6.65;;;10.60;1.00;;;;;;5076800;28;20432;-26
2022/07/05 00:39:51;;;;;;;9.35;6.50;;;10.60;1.00;;;;;;5076547;28;20044;-26
2022/07/05 00:42:17;;;;;;;7.00;6.30;;;10.70;11.50;;;;;;5075518;28;20045;-26
2022/07/05 00:44:43;;;;;;;6.25;5.30;;;10.80;31.90;;;;;;5076305;28;20364;-26
2022/07/05 00:47:11;;;;;;;11.88;7.13;;;10.80;23.90;;;;;;5077178;28;20051;-26
2022/07/05 00:49:37;;;;;;;12.55;7.25;;;10.90;50.70;;;;;;5076270;28;20084;-26
2022/07/05 00:52:04;;;;;;;9.95;6.50;;;10.90;17.90;;;;;;5076769;28;20091;-26
2022/07/05 00:54:33;;;;;;;10.15;7.07;;;10.90;1.00;;;;;;5074953;28;20545;-26
2022/07/05 00:56:59;;;;;;;9.35;6.50;;;10.80;1.00;;;;;;5075938;28;20570;-26
2022/07/05 00:59:26;;;;;;;9.18;6.97;;;10.80;1.00;;;;;;5076114;28;20131;-26
2022/07/05 01:01:52;;;;;;;8.63;5.60;;;10.70;1.00;;;;;;5074886;28;20055;-26
2022/07/05 01:04:17;;;;;;;9.73;7.15;;;10.70;1.00;;;;;;5076035;28;20044;-26
2022/07/05 01:06:47;;;;;;;8.73;6.85;;;10.60;1.00;;;;;;5076500;28;20044;-26
2022/07/05 01:09:15;;;;;;;7.70;6.60;;;10.40;1.00;;;;;;5075241;28;20048;-26
2022/07/05 01:11:46;;;;;;;10.80;7.50;;;10.40;1.00;;;;;;5075188;28;20434;-26
2022/07/05 01:14:15;;;;;;;12.05;7.93;;;10.30;1.00;;;;;;5076997;28;20060;-26
2022/07/05 01:16:40;;;;;;;11.70;7.40;;;10.30;1.00;;;;;;5075695;28;20562;-26
2022/07/05 01:19:07;;;;;;;11.98;7.43;;;10.30;1.00;;;;;;5075776;28;20070;-26
2022/07/05 01:21:42;;;;;;;9.10;7.43;;;10.30;1.00;;;;;;5075705;28;20113;-26
2022/07/05 01:24:09;;;;;;;10.52;7.05;;;10.40;1.00;;;;;;5058655;28;20052;-26
2022/07/05 01:26:35;;;;;;;10.27;6.85;;;10.30;1.00;;;;;;5075500;28;20462;-26
2022/07/05 01:29:01;;;;;;;8.68;6.80;;;10.30;1.00;;;;;;5075611;28;20048;-26
2022/07/05 01:31:27;;;;;;;9.30;6.53;;;10.20;1.00;;;;;;5075542;28;20467;-26
2022/07/05 01:33:53;;;;;;;8.05;6.40;;;10.20;1.00;;;;;;5040449;28;20048;-27
2022/07/05 01:36:19;;;;;;;8.05;6.55;;;10.10;1.00;;;;;;5075721;28;20040;-26
2022/07/05 01:38:45;;;;;;;10.27;6.97;;;10.10;1.00;;;;;;5075980;28;20055;-26
2022/07/05 01:41:11;;;;;;;10.55;7.15;;;10.00;1.00;;;;;;5074071;28;20048;-26
2022/07/05 01:43:37;;;;;;;9.75;7.47;;;10.00;1.00;;;;;;5075254;28;20040;-26
2022/07/05 01:46:05;;;;;;;9.25;6.82;;;9.90;1.00;;;;;;5074832;28;20101;-26
2022/07/05 01:48:33;;;;;;;10.20;6.75;;;9.90;1.00;;;;;;5075167;28;20486;-26
2022/07/05 01:51:05;;;;;;;7.95;7.00;;;10.00;1.00;;;;;;5074560;28;20044;-26
2022/07/05 01:53:32;;;;;;;10.88;7.05;;;9.80;1.00;;;;;;5075045;28;20178;-26
2022/07/05 01:56:00;;;;;;;11.95;7.18;;;9.80;1.00;;;;;;5057439;28;20079;-26
2022/07/05 01:58:27;;;;;;;9.65;7.43;;;9.80;1.00;;;;;;5075009;28;20145;-26
2022/07/05 02:00:54;;;;;;;11.48;7.85;;;9.80;1.00;;;;;;5075451;28;20051;-26
2022/07/05 02:03:20;;;;;;;11.32;7.60;;;9.80;1.00;;;;;;5074857;28;20049;-26
2022/07/05 02:05:47;;;;;;;10.27;7.45;;;9.70;1.00;;;;;;5073655;28;20040;-26
2022/07/05 02:08:15;;;;;;;13.68;9.20;;;9.70;1.00;;;;;;5057142;28;20094;-27
2022/07/05 02:10:42;;;;;;;12.75;8.48;;;9.70;4.10;;;;;;5074717;28;20044;-26
2022/07/05 02:13:08;;;;;;;12.65;9.05;;;9.70;12.70;;;;;;5073629;28;20087;-26
2022/07/05 02:15:36;;;;;;;9.80;8.80;;;9.70;10.60;;;;;;5074594;28;20501;-26
2022/07/05 02:18:03;;;;;;;9.85;8.68;;;9.70;13.80;;;;;;5074786;28;20091;-26
2022/07/05 02:20:30;;;;;;;12.38;9.00;;;9.60;21.30;;;;;;5075043;28;20110;-26
2022/07/05 02:22:56;;;;;;;12.85;8.98;;;9.60;27.50;;;;;;5074066;28;20136;-26
2022/07/05 02:25:22;;;;;;;11.90;9.27;;;9.50;35.70;;;;;;5074075;28;20498;-26
2022/07/05 02:27:48;;;;;;;16.88;10.88;;;9.50;64.50;;;;;;5074449;28;20113;-26
2022/07/05 02:30:15;;;;;;;11.45;9.27;;;9.50;80.30;;;;;;5073088;28;20049;-26
2022/07/05 02:32:41;;;;;;;11.02;9.88;;;9.50;95.40;;;;;;5074330;28;20051;-26
2022/07/05 02:35:08;;;;;;;15.13;11.20;;;9.50;97.80;;;;;;5074118;28;20382;-26
2022/07/05 02:37:35;;;;;;;13.73;10.57;;;9.50;99.90;;;;;;5074210;28;20045;-26
2022/07/05 02:40:01;;;;;;;16.38;9.50;;;9.50;99.90;;;;;;5073486;28;20040;-26
2022/07/05 02:42:26;;;;;;;11.93;10.00;;;9.50;99.90;;;;;;5074141;28;20055;-26
2022/07/05 02:44:52;;;;;;;16.63;10.63;;;9.40;99.20;;;;;;5073131;28;20075;-26
2022/07/05 02:47:18;;;;;;;13.95;10.40;;;9.40;99.90;;;;;;5073377;28;20102;-26
2022/07/05 02:49:43;;;;;;;14.23;11.07;;;9.40;99.90;;;;;;5074329;28;20051;-26
2022/07/05 02:52:09;;;;;;;11.50;10.25;;;9.40;99.90;;;;;;5073999;28;20437;-26
2022/07/05 02:54:35;;;;;;;15.18;11.27;;;9.30;99.90;;;;;;5073918;28;20080;-26
2022/07/05 02:57:00;;;;;;;14.10;11.80;;;9.40;99.90;;;;;;5072777;28;20051;-26
2022/07/05 02:59:26;;;;;;;13.80;10.65;;;9.40;99.90;;;;;;5072668;28;20090;-26
2022/07/05 03:01:52;;;;;;;16.08;13.25;;;9.50;99.90;;;;;;5072668;28;20106;-26
2022/07/05 03:04:18;;;;;;;13.85;11.65;;;9.50;99.90;;;;;;5073441;28;20048;-26
2022/07/05 03:06:43;;;;;;;14.70;11.32;;;9.40;99.90;;;;;;5074342;28;20040;-26
2022/07/05 03:09:10;;;;;;;15.35;11.32;;;9.40;99.90;;;;;;5074376;28;20085;-26
2022/07/05 03:11:36;;;;;;;16.23;12.30;;;9.50;99.90;;;;;;5073769;28;20128;-26
2022/07/05 03:14:02;;;;;;;14.73;12.30;;;9.60;99.90;;;;;;5074240;28;20057;-26
2022/07/05 03:16:29;;;;;;;20.55;13.25;;;9.70;99.90;;;;;;5073679;28;20037;-26
2022/07/05 03:18:55;;;;;;;17.17;12.52;;;9.70;99.90;;;;;;5074164;28;20049;-26
2022/07/05 03:21:21;;;;;;;14.98;12.98;;;9.70;99.90;;;;;;5073052;28;20075;-26
2022/07/05 03:23:47;;;;;;;15.38;12.63;;;9.80;99.90;;;;;;5072466;28;20051;-26
2022/07/05 03:26:12;;;;;;;18.55;12.95;;;9.80;99.90;;;;;;5073557;28;20044;-26
2022/07/05 03:28:38;;;;;;;17.45;13.23;;;9.90;99.90;;;;;;5074132;28;20433;-27
2022/07/05 03:31:04;;;;;;;17.60;12.45;;;9.90;99.90;;;;;;5072973;28;20059;-26
2022/07/05 03:33:29;;;;;;;13.13;11.68;;;9.90;99.90;;;;;;5073592;28;20044;-26
2022/07/05 03:35:55;;;;;;;17.40;11.50;;;9.90;99.90;;;;;;5074072;28;20165;-26
2022/07/05 03:38:21;;;;;;;13.68;11.38;;;9.90;99.90;;;;;;5073490;28;20041;-26
2022/07/05 03:40:47;;;;;;;13.63;12.02;;;9.90;99.90;;;;;;5072475;28;20051;-26
2022/07/05 03:43:12;;;;;;;16.05;12.05;;;9.80;99.90;;;;;;5073430;28;20044;-26
2022/07/05 03:45:38;;;;;;;12.40;10.40;;;9.80;99.90;;;;;;5073097;28;20037;-27
2022/07/05 03:48:04;;;;;;;17.33;12.80;;;9.90;99.90;;;;;;5072197;28;20093;-26
2022/07/05 03:50:30;;;;;;;14.93;12.00;;;9.80;99.90;;;;;;5073304;28;20037;-26
2022/07/05 03:52:56;;;;;;;16.15;11.30;;;9.80;99.90;;;;;;5072234;28;20052;-26
2022/07/05 03:55:22;;;;;;;17.23;12.50;;;9.90;99.90;;;;;;5073388;28;20091;-26
2022/07/05 03:57:47;;;;;;;15.35;11.80;;;10.00;1.00;;;;;;5076012;28;20041;-26
2022/07/05 04:00:14;;;;;;;16.15;12.70;;;10.00;1.00;;;;;;5043009;28;20079;-26
2022/07/05 04:02:40;;;;;;;15.20;12.98;;;10.10;1.00;;;;;;5077484;28;20048;-26
2022/07/05 04:05:06;;;;;;;14.80;11.38;;;10.20;1.00;;;;;;5075932;28;20395;-26
2022/07/05 04:07:32;;;;;;;14.45;11.40;;;10.20;1.00;;;;;;5076200;28;20118;-26
2022/07/05 04:09:58;;;;;;;13.93;11.98;;;10.30;1.00;;;;;;5076163;28;20067;-26
2022/07/05 04:12:24;;;;;;;17.30;12.55;;;10.40;1.00;;;;;;5077075;28;20132;-26
2022/07/05 04:14:50;;;;;;;14.57;11.15;;;10.50;1.00;;;;;;5076704;28;20088;-26
2022/07/05 04:17:15;;;;;;;14.40;10.80;;;10.60;1.00;;;;;;5076021;28;20048;-26
2022/07/05 04:19:41;;;;;;;12.55;10.70;;;10.70;1.00;;;;;;5077386;28;20048;-26
2022/07/05 04:22:07;;;;;;;13.18;10.35;;;10.70;1.00;;;;;;5076836;28;20052;-26
2022/07/05 04:25:16;;;;;;;11.35;10.23;;;10.80;1.00;;;;;;5076673;28;20044;-26
2022/07/05 04:27:18;;;;;;;12.80;9.88;;;10.90;1.00;;;;;;5076980;28;20482;-27
2022/07/05 04:29:44;;;;;;;11.75;9.77;;;10.90;1.00;;;;;;5076946;28;20045;-26
2022/07/05 04:32:10;;;;;;;11.18;9.20;;;11.00;1.00;;;;;;5076651;28;20048;-27
2022/07/05 04:34:35;;;;;;;12.30;10.15;;;11.10;1.00;;;;;;5075900;28;20493;-26
2022/07/05 04:37:01;;;;;;;11.50;10.32;;;11.20;1.00;;;;;;5076537;28;20131;-27
2022/07/05 04:39:26;;;;;;;11.18;9.18;;;11.20;1.00;;;;;;5076510;28;20079;-26
2022/07/05 04:41:52;;;;;;;13.57;9.60;;;11.30;5.70;;;;;;5076476;28;20478;-26
2022/07/05 04:44:18;;;;;;;11.55;9.52;;;11.50;14.70;;;;;;5076376;28;20048;-26
2022/07/05 04:46:43;;;;;;;9.88;8.45;;;11.50;13.60;;;;;;5076570;28;20097;-26
2022/07/05 04:49:09;;;;;;;11.77;8.52;;;11.60;7.90;;;;;;5076325;28;20475;-26
2022/07/05 04:51:35;;;;;;;13.27;9.10;;;11.70;6.00;;;;;;5075351;28;20048;-26
2022/07/05 04:54:00;;;;;;;9.77;8.68;;;11.80;1.00;;;;;;5058414;28;20045;-27
2022/07/05 04:56:26;;;;;;;8.93;8.02;;;11.90;1.00;;;;;;5076464;28;20041;-27
2022/07/05 04:58:52;;;;;;;14.88;8.07;;;12.00;9.40;;;;;;5076183;28;20048;-26
2022/07/05 05:01:17;;;;;;;10.32;5.82;;;12.20;25.90;;;;;;5076116;28;20046;-26
2022/07/05 05:03:43;;;;;;;7.78;4.75;;;12.40;11.40;;;;;;5076071;28;20045;-26
2022/07/05 05:06:09;;;;;;;9.25;5.93;;;12.70;1.00;;;;;;5076025;28;20083;-26
2022/07/05 05:08:35;;;;;;;12.80;5.00;;;12.90;3.50;;;;;;5074987;28;20469;-26
2022/07/05 05:11:00;;;;;;;9.93;4.20;;;13.50;94.90;;;;;;5074487;28;20040;-26
2022/07/05 05:13:27;;;;;;;7.70;4.28;;;14.40;1.00;;;;;;5076319;28;20082;-26
2022/07/05 05:15:53;;;;;;;7.95;3.85;;;15.30;99.90;;;;;;5074695;28;20044;-26
2022/07/05 05:18:21;;;;;;;17.25;4.18;;;16.10;99.90;;;;;;5074810;28;20040;-26
2022/07/05 05:20:46;;;;;;;4.18;3.17;;;16.70;1.00;;;;;;5076370;28;20053;-26
2022/07/05 05:23:12;;;;;;;5.90;3.33;;;17.20;99.90;;;;;;5074627;28;20106;-27
2022/07/05 05:25:38;;;;;;;7.38;2.50;;;17.70;99.90;;;;;;5075584;28;20555;-27
2022/07/05 05:28:03;;;;;;;6.25;3.30;;;18.00;1.00;;;;;;5076143;28;20055;-26
2022/07/05 05:30:29;;;;;;;7.07;3.17;;;18.00;1.00;;;;;;5075657;28;20045;-26
2022/07/05 05:32:55;;;;;;;4.95;2.55;;;18.30;99.90;;;;;;5074894;28;20086;-26
2022/07/05 05:35:21;;;;;;;5.18;2.63;;;18.20;99.90;;;;;;5074304;28;20044;-26
2022/07/05 05:37:52;;;;;;;3.95;2.25;;;18.40;99.90;;;;;;5074485;28;20051;-27
2022/07/05 05:40:19;;;;;;;4.13;2.45;;;18.70;99.90;;;;;;5075429;28;20048;-26
2022/07/05 05:42:45;;;;;;;5.85;2.13;;;18.60;99.90;;;;;;5075327;28;20048;-27
2022/07/05 05:45:11;;;;;;;6.13;2.45;;;18.80;99.90;;;;;;5057576;28;20048;-27
2022/07/05 05:47:43;;;;;;;3.47;1.70;;;19.00;99.90;;;;;;5075250;28;20153;-26
2022/07/05 05:50:09;;;;;;;8.40;1.83;;;19.20;31.50;;;;;;5075220;28;20056;-26
2022/07/05 05:52:35;;;;;;;8.25;2.10;;;19.20;1.00;;;;;;5075133;28;20041;-27
2022/07/05 05:55:01;;;;;;;4.88;1.50;;;19.10;1.00;;;;;;5057461;28;20478;-26
2022/07/05 05:57:26;;;;;;;4.60;1.52;;;19.30;1.00;;;;;;5074791;28;20071;-26
2022/07/05 05:59:52;;;;;;;4.18;1.30;;;19.30;1.00;;;;;;5075235;28;20048;-26
2022/07/05 06:02:18;;;;;;;4.55;1.58;;;19.20;1.00;;;;;;5075448;28;20051;-26
2022/07/05 06:04:43;;;;;;;2.67;1.58;;;19.00;1.00;;;;;;5073950;28;20041;-26
2022/07/05 06:07:09;;;;;;;5.75;2.03;;;18.40;1.00;;;;;;5074794;28;20041;-26
2022/07/05 06:09:35;;;;;;;5.22;1.92;;;17.70;99.90;;;;;;5074738;28;20064;-26
2022/07/05 06:12:00;;;;;;;5.45;1.88;;;17.80;99.90;;;;;;5074809;28;20040;-26
2022/07/05 06:14:26;;;;;;;9.05;1.70;;;18.10;99.90;;;;;;5074605;28;20082;-26
2022/07/05 06:16:52;;;;;;;3.65;0.90;;;18.40;99.90;;;;;;5074573;28;20071;-26
2022/07/05 06:19:17;;;;;;;4.95;1.45;;;18.70;99.90;;;;;;5056626;28;20048;-25
2022/07/05 06:21:43;;;;;;;2.42;0.95;;;18.70;99.90;;;;;;5074531;28;20084;-26
2022/07/05 06:24:09;;;;;;;5.70;1.40;;;18.70;22.30;;;;;;5075045;28;20052;-26
2022/07/05 06:26:34;;;;;;;3.60;1.35;;;18.80;12.40;;;;;;5074918;28;20036;-26
2022/07/05 06:29:00;;;;;;;3.58;1.15;;;18.90;98.10;;;;;;5075262;28;20048;-25
2022/07/05 06:31:26;;;;;;;5.82;1.20;;;18.90;34.10;;;;;;5074582;28;20470;-25
2022/07/05 06:33:51;;;;;;;9.20;1.40;;;18.90;36.30;;;;;;5074279;28;20044;-25
2022/07/05 06:36:17;;;;;;;2.83;1.10;;;18.80;14.60;;;;;;5075094;28;20040;-26
2022/07/05 06:38:42;;;;;;;4.28;0.80;;;18.90;1.00;;;;;;5073314;28;20472;-26
2022/07/05 06:41:08;;;;;;;4.38;1.30;;;19.00;1.00;;;;;;5074208;28;20040;-25
2022/07/05 06:43:34;;;;;;;3.15;0.88;;;19.20;11.30;;;;;;5074388;28;20040;-26
2022/07/05 06:45:59;;;;;;;6.18;1.15;;;19.30;1.00;;;;;;5072867;28;20128;-26
2022/07/05 06:48:25;;;;;;;6.13;1.52;;;19.30;1.00;;;;;;5073441;28;20467;-25
2022/07/05 06:50:51;;;;;;;5.95;1.15;;;19.40;1.00;;;;;;5073939;28;20040;-26
2022/07/05 06:53:16;;;;;;;8.93;1.35;;;19.60;8.50;;;;;;5074042;28;20040;-25
2022/07/05 06:55:44;;;;;;;4.63;0.90;;;19.70;1.00;;;;;;5074060;28;20422;-26
2022/07/05 06:58:11;;;;;;;3.75;0.75;;;19.90;1.00;;;;;;5057444;28;20052;-26
2022/07/05 07:00:39;;;;;;;7.15;1.30;;;20.20;1.00;;;;;;5073930;28;20053;-25
2022/07/05 07:03:05;;;;;;;5.25;0.88;;;19.90;99.90;;;;;;5073895;28;20055;-26
2022/07/05 07:05:31;;;;;;;8.00;0.90;;;19.20;99.90;;;;;;5073859;28;20044;-26
2022/07/05 07:10:41;;;;;;;7.00;1.08;;;18.70;38.60;;;;;;5072863;28;20055;-25
2022/07/05 07:13:06;;;;;;;4.55;0.80;;;18.40;10.50;;;;;;5039896;28;20057;-26
2022/07/05 07:15:33;;;;;;;6.28;1.27;;;18.20;20.20;;;;;;5073491;28;20053;-25
2022/07/05 07:17:59;;;;;;;4.85;0.77;;;18.00;99.90;;;;;;5073062;28;20076;-26
2022/07/05 07:20:25;;;;;;;2.92;0.63;;;17.90;1.00;;;;;;5072736;28;20052;-26
2022/07/05 07:22:51;;;;;;;2.88;0.50;;;17.80;1.00;;;;;;5073653;28;20049;-25
2022/07/05 07:25:17;;;;;;;3.03;0.40;;;17.90;99.90;;;;;;5074124;28;20052;-26
2022/07/05 07:27:47;;;;;;;2.83;0.38;;;18.10;99.90;;;;;;5073648;28;20052;-26
2022/07/05 07:30:15;;;;;;;3.05;0.55;;;17.90;89.00;;;;;;5073369;28;20047;-26
2022/07/05 07:32:41;;;;;;;4.07;0.60;;;17.60;99.90;;;;;;5073529;28;20059;-27
2022/07/05 07:35:08;;;;;;;3.10;0.40;;;17.40;99.90;;;;;;5073291;28;20491;-26
2022/07/05 07:37:34;;;;;;;4.63;0.70;;;17.40;1.00;;;;;;5073126;28;20045;-25
2022/07/05 07:40:01;;;;;;;7.75;0.88;;;18.00;1.00;;;;;;5072388;28;20050;-26
2022/07/05 07:42:27;;;;;;;2.35;0.60;;;18.30;99.90;;;;;;5073472;28;20055;-26
2022/07/05 07:44:53;;;;;;;5.55;0.85;;;18.10;99.90;;;;;;5040052;28;20462;-26
2022/07/05 07:47:19;;;;;;;4.05;0.73;;;17.90;99.90;;;;;;5072812;28;20048;-26
2022/07/05 07:49:45;;;;;;;3.58;0.60;;;17.60;1.00;;;;;;5073428;28;20041;-27
2022/07/05 07:52:11;;;;;;;6.63;0.63;;;17.40;99.90;;;;;;5073403;28;20040;-25
2022/07/05 07:54:36;;;;;;;4.57;0.68;;;17.20;99.90;;;;;;5072203;28;20132;-25
2022/07/05 07:57:04;;;;;;;3.25;0.60;;;17.20;99.90;;;;;;5073328;28;20131;-26
2022/07/05 07:59:34;;;;;;;3.83;0.63;;;17.20;99.90;;;;;;5073312;28;20044;-26
2022/07/05 08:02:00;;;;;;;7.80;1.00;;;17.30;1.00;;;;;;5072288;28;20483;-25
2022/07/05 08:04:26;;;;;;;4.22;0.70;;;17.40;99.90;;;;;;5071993;28;20044;-26
2022/07/05 08:06:52;;;;;;;6.30;0.55;;;17.50;99.90;;;;;;5073142;28;20041;-26
2022/07/05 08:09:18;;;;;;;7.43;0.80;;;17.60;99.90;;;;;;5072912;28;20040;-26
2022/07/05 08:11:45;;;;;;;4.07;0.55;;;17.70;99.90;;;;;;5073979;28;20097;-26
2022/07/05 08:14:11;;;;;;;2.28;0.60;;;18.10;1.00;;;;;;5072816;28;20061;-26
2022/07/05 08:16:37;;;;;;;5.13;1.10;;;18.40;99.90;;;;;;5071935;28;20067;-26
2022/07/05 08:21:47;;;;;;;3.15;0.40;;;18.00;1.00;;;;;;5072431;28;20153;-26
2022/07/05 08:24:14;;;;;;;3.10;0.60;;;18.20;81.90;;;;;;5073079;28;20063;-26
2022/07/05 08:26:41;;;;;;;3.05;0.65;;;18.60;99.90;;;;;;5072957;28;20048;-26
2022/07/05 08:29:09;;;;;;;2.70;0.60;;;18.60;1.00;;;;;;5073012;28;20059;-26
2022/07/05 08:31:46;;;;;;;2.03;0.40;;;19.10;1.00;;;;;;5072060;28;20149;-26
2022/07/05 08:34:12;;;;;;;4.88;0.50;;;19.60;1.00;;;;;;5073880;28;20201;-26
2022/07/05 08:36:42;;;;;;;1.60;0.30;;;19.90;99.90;;;;;;5072633;28;20498;-26
2022/07/05 08:39:08;;;;;;;2.65;0.40;;;19.90;99.90;;;;;;5073461;28;20044;-26
2022/07/05 08:41:37;;;;;;;4.65;1.10;;;19.40;99.90;;;;;;5072943;28;20116;-25
2022/07/05 08:44:04;;;;;;;3.72;0.55;;;19.20;99.90;;;;;;5075064;28;20088;-26
2022/07/05 08:46:36;;;;;;;1.85;0.40;;;19.20;99.90;;;;;;5076309;28;20048;-27
2022/07/05 08:49:04;;;;;;;4.30;0.50;;;18.90;1.00;;;;;;5076947;28;20095;-26
2022/07/05 08:51:34;;;;;;;3.75;0.73;;;18.60;99.90;;;;;;5076336;28;20080;-26
2022/07/05 08:54:00;;;;;;;3.40;1.00;;;18.40;99.90;;;;;;5076308;28;20055;-26
2022/07/05 08:56:26;;;;;;;4.40;0.60;;;18.50;99.90;;;;;;5077360;28;20082;-26
2022/07/05 08:58:52;;;;;;;3.63;0.63;;;18.70;1.00;;;;;;5077045;28;20460;-26
2022/07/05 09:01:18;;;;;;;3.92;0.80;;;18.80;1.00;;;;;;5075201;28;20075;-26
2022/07/05 09:03:47;;;;;;;3.20;0.90;;;18.70;1.00;;;;;;5076097;28;20048;-26
2022/07/05 09:06:16;;;;;;;4.05;0.70;;;18.60;1.00;;;;;;5076018;28;20088;-26
2022/07/05 09:08:42;;;;;;;3.47;0.40;;;19.00;1.00;;;;;;5075625;28;20426;-26
2022/07/05 09:11:11;;;;;;;2.90;0.47;;;19.10;1.00;;;;;;5075991;28;20129;-26
2022/07/05 09:13:48;;;;;;;3.00;0.90;;;19.00;99.90;;;;;;5075542;28;20064;-26
2022/07/05 09:16:14;;;;;;;7.85;1.00;;;18.50;1.00;;;;;;5076196;28;20048;-26
2022/07/05 09:18:44;;;;;;;4.25;0.90;;;18.30;99.90;;;;;;5075795;28;20528;-26
2022/07/05 09:21:17;;;;;;;5.28;0.80;;;18.20;99.90;;;;;;5074665;28;20040;-26
2022/07/05 09:23:43;;;;;;;3.80;0.63;;;18.70;38.80;;;;;;5076554;28;20052;-26
2022/07/05 09:26:09;;;;;;;5.53;0.85;;;19.70;99.90;;;;;;5075290;28;20498;-26
2022/07/05 09:28:35;;;;;;;2.13;0.38;;;20.50;1.00;;;;;;5075637;28;20040;-26
2022/07/05 09:31:02;;;;;;;1.77;0.45;;;20.20;1.00;;;;;;5075619;28;20044;-26
2022/07/05 09:33:27;;;;;;;2.65;0.60;;;19.70;1.00;;;;;;5075620;28;20049;-26
2022/07/05 09:35:57;;;;;;;6.20;0.80;;;19.20;99.10;;;;;;5074580;28;20494;-26
2022/07/05 09:38:24;;;;;;;5.70;1.30;;;18.70;99.90;;;;;;5057261;28;20052;-26
2022/07/05 09:40:55;;;;;;;4.55;0.82;;;18.40;1.00;;;;;;5075422;28;20132;-26
2022/07/05 09:43:22;;;;;;;2.78;0.50;;;18.30;26.60;;;;;;5075503;28;20052;-26
2022/07/05 09:46:00;;;;;;;5.25;0.68;;;18.60;16.10;;;;;;5074973;28;20098;-26
2022/07/05 09:48:28;;;;;;;3.55;0.40;;;19.20;1.00;;;;;;5075467;28;20490;-26
2022/07/05 09:51:11;;;;;;;5.30;0.40;;;19.30;99.90;;;;;;5075203;28;20131;-26
2022/07/05 09:53:51;;;;;;;3.35;0.73;;;19.40;99.90;;;;;;5074568;28;20405;-27
2022/07/05 09:56:17;;;;;;;1.48;0.40;;;20.10;1.00;;;;;;5075089;28;20044;-26
2022/07/05 09:58:43;;;;;;;2.55;0.45;;;20.20;99.90;;;;;;5073874;28;20075;-26
2022/07/05 10:01:30;;;;;;;4.65;0.50;;;19.50;99.90;;;;;;5074978;28;20105;-26
2022/07/05 10:04:01;;;;;;;7.57;1.00;;;19.00;1.00;;;;;;5074888;28;20047;-26
2022/07/05 10:06:28;;;;;;;4.15;0.50;;;18.80;99.90;;;;;;5073673;28;20058;-26
2022/07/05 10:08:54;;;;;;;5.13;1.02;;;18.50;99.90;;;;;;5073660;28;20106;-26
2022/07/05 10:11:29;;;;;;;3.53;0.50;;;18.30;99.90;;;;;;5074796;28;20117;-26
2022/07/05 10:13:55;;;;;;;2.75;0.40;;;18.30;1.00;;;;;;5073474;28;20457;-26
2022/07/05 10:16:22;;;;;;;6.10;1.48;;;18.50;99.90;;;;;;5074616;28;20036;-26
2022/07/05 10:18:56;;;;;;;3.58;0.40;;;18.90;99.90;;;;;;5074322;28;20510;-26
2022/07/05 10:21:23;;;;;;;5.10;0.57;;;19.30;99.90;;;;;;5075479;28;20052;-26
2022/07/05 10:23:53;;;;;;;3.28;0.50;;;19.30;99.90;;;;;;5074515;28;20470;-26
2022/07/05 10:26:20;;;;;;;3.75;0.55;;;19.20;1.00;;;;;;5074668;28;20493;-26
2022/07/05 10:28:49;;;;;;;4.63;1.23;;;19.70;99.90;;;;;;5074415;28;20063;-25
2022/07/05 10:31:16;;;;;;;4.97;0.77;;;20.60;94.70;;;;;;5073129;28;20072;-26
2022/07/05 10:33:42;;;;;;;3.67;0.60;;;20.50;99.90;;;;;;5074381;28;20123;-26
2022/07/05 10:36:10;;;;;;;3.63;0.70;;;20.00;99.90;;;;;;5074334;28;20040;-26
2022/07/05 10:38:40;;;;;;;2.60;0.50;;;19.40;1.00;;;;;;5075101;28;20052;-26
2022/07/05 10:41:09;;;;;;;4.03;0.60;;;19.60;99.90;;;;;;5074222;28;20489;-26
2022/07/05 10:43:34;;;;;;;3.10;0.73;;;20.40;99.90;;;;;;5074163;28;20040;-26
2022/07/05 10:46:02;;;;;;;3.78;0.43;;;21.20;99.90;;;;;;5074064;28;20052;-26
2022/07/05 10:48:29;;;;;;;2.85;0.52;;;21.80;99.90;;;;;;5074113;28;20406;-26
2022/07/05 10:50:59;;;;;;;2.35;0.57;;;21.80;99.90;;;;;;5074625;28;20082;-27
2022/07/05 10:53:32;;;;;;;5.25;0.93;;;21.60;99.90;;;;;;5074386;28;20394;-26
2022/07/05 10:56:04;;;;;;;2.30;0.55;;;20.70;99.90;;;;;;5057006;28;20123;-27
2022/07/05 10:58:34;;;;;;;2.33;0.60;;;19.80;99.90;;;;;;5072506;28;20477;-26
2022/07/05 11:01:11;;;;;;;4.55;0.70;;;19.30;13.30;;;;;;5074473;28;20051;-26
2022/07/05 11:03:41;;;;;;;3.95;0.57;;;19.50;1.00;;;;;;5074423;28;20051;-26
2022/07/05 11:06:08;;;;;;;2.95;0.50;;;19.70;33.30;;;;;;5073012;28;20032;-26
2022/07/05 11:09:00;;;;;;;4.70;0.60;;;19.60;69.70;;;;;;5039733;28;20076;-26
2022/07/05 11:11:33;;;;;;;4.43;0.90;;;19.30;1.00;;;;;;5072679;28;20044;-26
2022/07/05 11:14:01;;;;;;;3.60;0.63;;;19.30;1.00;;;;;;5074135;28;20071;-26
2022/07/05 11:16:29;;;;;;;3.08;0.93;;;19.40;99.90;;;;;;5073664;28;20052;-26
2022/07/05 11:19:17;;;;;;;1.95;0.45;;;19.30;82.20;;;;;;5072624;28;20506;-26
2022/07/05 11:22:03;;;;;;;2.42;0.20;;;19.20;99.90;;;;;;5074290;28;20380;-26
2022/07/05 11:24:31;;;;;;;2.45;0.47;;;18.80;99.90;;;;;;5073627;28;20170;-26
2022/07/05 11:27:02;;;;;;;2.28;0.60;;;18.60;1.00;;;;;;5074119;28;20044;-26
2022/07/05 11:29:43;;;;;;;3.75;0.65;;;18.40;73.00;;;;;;5074108;28;20052;-26
2022/07/05 11:32:13;;;;;;;4.72;0.50;;;18.30;99.90;;;;;;5072617;28;20057;-26
2022/07/05 11:34:40;;;;;;;3.72;0.43;;;18.30;99.90;;;;;;5072878;28;20049;-26
2022/07/05 11:37:18;;;;;;;2.70;0.60;;;18.30;99.90;;;;;;5056440;28;20466;-26
2022/07/05 11:39:48;;;;;;;10.18;1.25;;;18.40;17.30;;;;;;5074150;28;20132;-25
2022/07/05 11:42:22;;;;;;;8.48;1.05;;;18.40;99.90;;;;;;5073787;28;20094;-26
2022/07/05 11:44:51;;;;;;;6.97;1.02;;;18.20;99.90;;;;;;5072221;28;20055;-26
2022/07/05 11:47:17;;;;;;;4.60;0.95;;;18.00;99.90;;;;;;5073439;28;20080;-26
2022/07/05 11:49:56;;;;;;;3.58;0.73;;;17.80;99.90;;;;;;5055725;28;20055;-26
2022/07/05 11:52:33;;;;;;;2.83;0.55;;;17.50;1.00;;;;;;5073316;28;20053;-26
2022/07/05 11:55:04;;;;;;;7.65;1.05;;;17.20;1.00;;;;;;5074254;28;20076;-27
2022/07/05 11:57:29;;;;;;;6.43;1.00;;;17.10;1.00;;;;;;5073717;28;20478;-26
2022/07/05 11:59:55;;;;;;;9.30;1.10;;;17.10;1.00;;;;;;5073325;28;20048;-26
2022/07/05 12:02:21;;;;;;;3.53;0.65;;;17.00;1.00;;;;;;5073380;28;20054;-25
2022/07/05 12:04:48;;;;;;;8.55;0.90;;;17.10;1.00;;;;;;5055517;28;20363;-26
2022/07/05 12:07:31;;;;;;;4.28;0.70;;;17.30;1.00;;;;;;5073265;28;20078;-25
2022/07/05 12:12:43;;;;;;;2.03;0.40;;;17.90;99.90;;;;;;5073249;28;20063;-26
2022/07/05 12:15:09;;;;;;;3.45;0.82;;;19.10;99.90;;;;;;5072051;28;20094;-26
2022/07/05 12:17:37;;;;;;;2.03;0.47;;;19.70;1.00;;;;;;5074314;28;20436;-26
2022/07/05 12:20:04;;;;;;;4.22;0.60;;;19.40;99.90;;;;;;5075928;28;20505;-26
2022/07/05 12:22:44;;;;;;;3.00;0.70;;;19.30;1.00;;;;;;5076849;28;20394;-27
2022/07/05 12:25:18;;;;;;;3.92;0.75;;;19.20;1.00;;;;;;5076867;28;20080;-26
2022/07/05 12:27:47;;;;;;;7.07;1.55;;;19.20;1.00;;;;;;5075618;28;20049;-26
2022/07/05 12:30:14;;;;;;;1.83;0.30;;;19.40;1.00;;;;;;5076764;28;20056;-26
2022/07/05 12:33:12;;;;;;;6.75;0.70;;;19.40;99.90;;;;;;5075560;28;20087;-26
2022/07/05 12:35:45;;;;;;;3.42;0.90;;;19.40;99.90;;;;;;5077194;28;20051;-26
2022/07/05 12:38:19;;;;;;;2.67;0.55;;;19.20;99.90;;;;;;5076691;28;20165;-26
2022/07/05 12:40:57;;;;;;;2.40;0.40;;;18.90;99.90;;;;;;5076610;28;20055;-26
2022/07/05 12:43:23;;;;;;;6.68;0.77;;;18.60;93.10;;;;;;5076587;28;20048;-26
2022/07/05 12:46:06;;;;;;;3.88;0.95;;;18.40;99.90;;;;;;5076368;28;20044;-26
2022/07/05 12:48:32;;;;;;;4.60;0.45;;;18.30;1.00;;;;;;5076492;28;20176;-26
2022/07/05 12:50:59;;;;;;;5.18;0.70;;;18.20;99.90;;;;;;5075099;28;20486;-26
2022/07/05 12:58:58;;;;;;;3.47;0.57;;;18.40;1.00;;;;;;5076339;28;20095;-26
2022/07/05 13:01:37;;;;;;;1.85;0.55;;;18.40;1.00;;;;;;5075481;28;20048;-26
2022/07/05 13:04:03;;;;;;;0.43;0.20;;;18.40;50.90;;;;;;5076072;28;20056;-26